Flight Track Log - Related Links

Times and Time Zones

All times are in EDT time to prevent confusion due to time zone crossing. See the TAI567 flight status page for this flight to view local times or setup timezone preferences in your user account.

Time Position Orientation Groundspeed Altitude Reporting Facility
EDT Latitude Longitude Course Direction KTS MPH feet Rate Location/Type
Sun 05:10:06 AM 40.4757 -73.6858 138° Southeast 314 361 8,000  Level FlightAware ADS-B (KSNC)
Sun 05:11:28 AM 40.3924 -73.5854 137° Southeast 340 391 11,300 2,370 Climbing FlightAware ADS-B (KSNC)
Sun 05:12:48 AM 40.2930 -73.4667 150° Southeast 343 395 14,400 2,331 Climbing FlightAware ADS-B (KSNC)
Sun 05:13:47 AM 40.2094 -73.4667 206° Southwest 282 325 16,700 2,182 Climbing FlightAware ADS-B (KSNC)
Sun 05:14:27 AM 40.1618 -73.4945 207° Southwest 287 330 18,000 1,944 Climbing FlightAware ADS-B (KSNC)
Sun 05:14:58 AM 40.1257 -73.5186 208° Southwest 287 330 19,000 1,905 Climbing FlightAware ADS-B (KSNC)
Sun 05:15:30 AM 40.0861 -73.5464 209° Southwest 294 338 20,000 1,742 Climbing FlightAware ADS-B (KSNC)
Sun 05:16:00 AM 40.0556 -73.5679 209° Southwest 297 342 20,800 1,161 Climbing FlightAware ADS-B (KSNC)
Sun 05:16:32 AM 40.0103 -73.6003 209° Southwest 301 346 21,200 806 Climbing FlightAware ADS-B
Sun 05:17:07 AM 39.9711 -73.6280 208° Southwest 336 387 21,700 1,125 Climbing FlightAware ADS-B (KSNC)
Sun 05:17:52 AM 39.9007 -73.6772 208° Southwest 344 396 22,700 1,341 Climbing FlightAware ADS-B
Sun 05:18:32 AM 39.8448 -73.7162 208° Southwest 349 402 23,600 1,407 Climbing FlightAware ADS-B
Sun 05:19:13 AM 39.7859 -73.7541 206° Southwest 352 405 24,600 1,291 Climbing FlightAware ADS-B
Sun 05:19:51 AM 39.7287 -73.7902 206° Southwest 360 414 25,300 1,077 Climbing FlightAware ADS-B
Sun 05:20:31 AM 39.6689 -73.8282 206° Southwest 365 420 26,000 1,119 Climbing FlightAware ADS-B
Sun 05:20:50 AM 39.6385 -73.8475 207° Southwest 360 414 26,400 1,200 Climbing FlightAware ADS-B (KWWD)
Sun 05:21:11 AM 39.6063 -73.8679 207° Southwest 361 415 26,800 1,071 Climbing FlightAware ADS-B (KWWD)
Sun 05:21:18 AM 39.5956 -73.8747 207° Southwest 363 418 26,900 1,171 Climbing FlightAware ADS-B (KWWD)
Sun 05:21:52 AM 39.5432 -73.9080 206° Southwest 373 429 27,600 1,108 Climbing FlightAware ADS-B
Sun 05:22:23 AM 39.4947 -73.9387 206° Southwest 376 433 28,100 828 Climbing FlightAware ADS-B (KWWD)
Sun 05:22:50 AM 39.4535 -73.9648 207° Southwest 375 432 28,400 750 Climbing FlightAware ADS-B (KWWD)
Sun 05:23:11 AM 39.4200 -73.9859 207° Southwest 380 437 28,700 889 Climbing FlightAware ADS-B (KWWD)
Sun 05:23:44 AM 39.3665 -74.0196 207° Southwest 382 440 29,200 917 Climbing FlightAware ADS-B (KWWD)
Sun 05:24:23 AM 39.3032 -74.0594 206° Southwest 393 452 29,800 1,029 Climbing FlightAware ADS-B (KWWD)
Sun 05:24:54 AM 39.2516 -74.0920 206° Southwest 392 451 30,400 957 Climbing FlightAware ADS-B (KWWD)
Sun 05:25:32 AM 39.1893 -74.1312 206° Southwest 394 453 30,900 957 Climbing FlightAware ADS-B (KWWD)
Sun 05:26:03 AM 39.1384 -74.1630 206° Southwest 394 453 31,500 984 Climbing FlightAware ADS-B (KWWD)
Sun 05:26:33 AM 39.0890 -74.1938 206° Southwest 395 455 31,900 612 Climbing FlightAware ADS-B (KWWD)
Sun 05:26:52 AM 39.0594 -74.2123 206° Southwest 399 459 32,000 118 Climbing FlightAware ADS-B
Sun 05:27:24 AM 39.0043 -74.2468 206° Southwest 411 473 32,000  Level FlightAware ADS-B (KWWD)
Sun 05:27:54 AM 38.9531 -74.2788 207° Southwest 415 478 32,000  Level FlightAware ADS-B (KWWD)
Sun 05:28:24 AM 38.8988 -74.3125 206° Southwest 433 498 32,000  Level FlightAware ADS-B (KWWD)
Sun 05:28:55 AM 38.8432 -74.3469 206° Southwest 443 510 32,000  Level FlightAware ADS-B (KWWD)
Sun 05:29:31 AM 38.7756 -74.3889 206° Southwest 449 517 32,000  Level FlightAware ADS-B
Sun 05:30:04 AM 38.7144 -74.4266 206° Southwest 426 490 32,000  Level FlightAware ADS-B (KWWD)
Sun 05:30:44 AM 38.6437 -74.4702 206° Southwest 415 478 32,000  Level FlightAware ADS-B (KWWD)
Sun 05:31:14 AM 38.5900 -74.5035 206° Southwest 426 490 32,000  Level FlightAware ADS-B (KWWD)
Sun 05:31:44 AM 38.5362 -74.5366 206° Southwest 429 494 32,000  Level FlightAware ADS-B (KWWD)
Sun 05:32:15 AM 38.4811 -74.5706 206° Southwest 428 493 32,000  Level FlightAware ADS-B (KWWD)
Sun 05:32:55 AM 38.4089 -74.6149 206° Southwest 445 512 32,000  Level FlightAware ADS-B (KWWD)
Sun 05:33:25 AM 38.3526 -74.6490 205° Southwest 445 512 32,000  Level FlightAware ADS-B (KWWD)
Sun 05:33:55 AM 38.2971 -74.6825 206° Southwest 442 509 32,000  Level FlightAware ADS-B (KWWD)
Sun 05:34:25 AM 38.2419 -74.7162 206° Southwest 431 496 32,000  Level FlightAware ADS-B (KWWD)
Sun 05:35:04 AM 38.1711 -74.7594 206° Southwest 427 491 32,000 -87 Level FlightAware ADS-B (KWWD)
Sun 05:35:34 AM 38.1161 -74.7929 206° Southwest 433 498 31,900  Descending FlightAware ADS-B (KWWD)
Sun 05:36:04 AM 38.0629 -74.8251 206° Southwest 430 495 32,000 77 Climbing FlightAware ADS-B (KWWD)
Sun 05:36:52 AM 37.9768 -74.8772 206° Southwest 430 495 32,000  Level FlightAware ADS-B (KWWD)
Sun 05:38:19 AM 37.8201 -74.9715 206° Southwest 432 497 32,000  Level FlightAware ADS-B (KWWD)
Sun 05:39:45 AM 37.6666 -75.0635 206° Southwest 412 474 32,000  Level FlightAware ADS-B (KWWD)
Sun 05:40:16 AM 37.6127 -75.0960 206° Southwest 412 474 32,000  Level FlightAware ADS-B (KWWD)
Sun 05:40:48 AM 37.5560 -75.1298 205° Southwest 426 490 32,000  Level FlightAware ADS-B (KWWD)
Sun 05:42:09 AM 37.4197 -75.2153 205° Southwest 420 483 32,000  Level Washington Center
Sun 05:43:09 AM 37.3114 -75.2786 205° Southwest 420 483 32,000  Level Washington Center
Sun 05:44:11 AM 37.2031 -75.3417 205° Southwest 425 489 32,000 -50 Level Washington Center
Sun 05:45:10 AM 37.0967 -75.4044 205° Southwest 425 489 31,900 -50 Descending Washington Center
Sun 05:46:10 AM 36.9883 -75.4672 205° Southwest 425 489 31,900  Level Washington Center
Sun 05:47:10 AM 36.8842 -75.5269 205° Southwest 425 489 31,900  Level Washington Center
Sun 05:48:11 AM 36.7756 -75.5919 206° Southwest 425 489 31,900 50 Level Washington Center
Sun 05:49:09 AM 36.6797 -75.6464 204° Southwest 425 489 32,000  Climbing Washington Center
Sun 05:50:10 AM 36.5733 -75.7083 205° Southwest 425 489 31,900  Descending Washington Center
Sun 05:51:11 AM 36.4647 -75.7703 205° Southwest 425 489 32,000 50 Climbing Washington Center
Sun 05:52:09 AM 36.3603 -75.8292 204° Southwest 420 483 32,000  Level Washington Center
Sun 05:53:12 AM 36.2517 -75.8933 205° Southwest 420 483 32,000 -50 Level Washington Center
Sun 05:54:09 AM 36.1472 -75.9522 204° Southwest 420 483 31,900 -50 Descending Washington Center
Sun 05:55:11 AM 36.0383 -76.0158 205° Southwest 420 483 31,900 49 Level Washington Center
Sun 05:56:11 AM 35.9317 -76.0742 204° Southwest 420 483 32,000 50 Climbing Washington Center
Sun 05:57:11 AM 35.8272 -76.1325 204° Southwest 420 483 32,000  Level Washington Center
Sun 05:58:12 AM 35.7225 -76.1933 205° Southwest 420 483 32,000  Level Washington Center
Sun 05:59:10 AM 35.6181 -76.2514 204° Southwest 420 483 32,000 -50 Level Washington Center
Sun 06:00:12 AM 35.5133 -76.3117 205° Southwest 420 483 31,900 -49 Descending Washington Center
Sun 06:01:12 AM 35.4086 -76.3694 204° Southwest 420 483 31,900  Level Washington Center
Sun 06:02:09 AM 35.3039 -76.4269 204° Southwest 420 483 31,900 50 Level Washington Center
Sun 06:03:11 AM 35.1908 -76.4944 206° Southwest 420 483 32,000 49 Climbing Washington Center
Sun 06:04:11 AM 35.0858 -76.5542 205° Southwest 420 483 32,000  Level Washington Center
Sun 06:05:09 AM 34.9811 -76.6111 204° Southwest 420 483 32,000  Level Washington Center
Sun 06:06:11 AM 34.8742 -76.6706 205° Southwest 420 483 32,000  Level Washington Center
Sun 06:07:10 AM 34.7694 -76.7297 205° Southwest 420 483 32,000  Level Washington Center
Sun 06:08:12 AM 34.6603 -76.7864 203° Southwest 420 483 32,000  Level Washington Center
Sun 06:09:09 AM 34.5533 -76.8453 204° Southwest 420 483 32,000  Level Washington Center
Sun 06:10:09 AM 34.4483 -76.9042 205° Southwest 420 483 32,000 -50 Level Washington Center
Sun 06:11:10 AM 34.3433 -76.9603 204° Southwest 420 483 31,900 -50 Descending Washington Center
Sun 06:12:10 AM 34.2364 -77.0189 204° Southwest 420 483 31,900 50 Level Washington Center
Sun 06:13:10 AM 34.1314 -77.0722 203° Southwest 420 483 32,000 34 Climbing Washington Center
Sun 06:15:06 AM 33.9364 -77.1783 204° Southwest 405 466 32,000  Level Jacksonville Center
Sun 06:16:06 AM 33.8306 -77.2378 205° Southwest 411 473 32,000 -50 Level Jacksonville Center
Sun 06:17:06 AM 33.7247 -77.2919 203° Southwest 411 473 31,900 -50 Descending Jacksonville Center
Sun 06:18:06 AM 33.6186 -77.3486 204° Southwest 416 479 31,900  Level Jacksonville Center
Sun 06:19:06 AM 33.5125 -77.4050 204° Southwest 416 479 31,900 50 Level Jacksonville Center
Sun 06:20:06 AM 33.4044 -77.4614 204° Southwest 416 479 32,000 50 Climbing Jacksonville Center
Sun 06:21:06 AM 33.2983 -77.5200 205° Southwest 416 479 32,000  Level Jacksonville Center
Sun 06:22:06 AM 33.1922 -77.5736 203° Southwest 416 479 32,000 -50 Level Jacksonville Center
Sun 06:23:06 AM 33.0842 -77.6322 204° Southwest 416 479 31,900  Descending Jacksonville Center
Sun 06:24:06 AM 32.9719 -77.6931 204° Southwest 416 479 32,000 50 Climbing Jacksonville Center
Sun 06:25:06 AM 32.8656 -77.7464 203° Southwest 416 479 32,000 -50 Level Jacksonville Center
Sun 06:26:06 AM 32.7611 -77.7992 203° Southwest 416 479 31,900 -50 Descending Jacksonville Center
Sun 06:27:06 AM 32.6569 -77.8544 204° Southwest 411 473 31,900  Level Jacksonville Center
Sun 06:28:06 AM 32.5506 -77.9072 203° Southwest 411 473 31,900  Level Jacksonville Center
Sun 06:29:06 AM 32.4464 -77.9619 204° Southwest 411 473 31,900 50 Level Jacksonville Center
Sun 06:30:06 AM 32.3397 -78.0169 204° Southwest 416 479 32,000 50 Climbing Jacksonville Center
Sun 06:31:06 AM 32.2314 -78.0719 203° Southwest 416 479 32,000  Level Jacksonville Center
Sun 06:32:06 AM 32.1250 -78.1289 204° Southwest 416 479 32,000  Level Jacksonville Center
Sun 06:33:06 AM 32.0164 -78.1861 204° Southwest 421 484 32,000  Level Jacksonville Center
Sun 06:34:06 AM 31.9078 -78.2406 203° Southwest 421 484 32,000  Level Jacksonville Center
Sun 06:35:06 AM 31.8117 -78.2967 206° Southwest 426 490 32,000 -50 Level Jacksonville Center
Sun 06:36:06 AM 31.7031 -78.3508 203° Southwest 432 497 31,900  Descending Jacksonville Center
Sun 06:37:06 AM 31.5947 -78.4100 205° Southwest 432 497 32,000 50 Climbing Jacksonville Center
Sun 06:38:06 AM 31.4858 -78.4639 203° Southwest 432 497 32,000  Level Jacksonville Center
Sun 06:39:06 AM 31.3772 -78.5200 204° Southwest 432 497 32,000  Level Jacksonville Center
Sun 06:40:06 AM 31.2683 -78.5714 202° Southwest 432 497 32,000 -50 Level Jacksonville Center
Sun 06:41:06 AM 31.1617 -78.6272 204° Southwest 425 489 31,900 -50 Descending Jacksonville Center
Sun 06:42:06 AM 31.0550 -78.6806 203° Southwest 425 489 31,900  Level Jacksonville Center
Sun 06:43:06 AM 30.9358 -78.7417 204° Southwest 430 495 31,900 50 Level Jacksonville Center
Sun 06:44:06 AM 30.8206 -78.7950 202° Southwest 440 506 32,000 50 Climbing Jacksonville Center
Sun 06:45:06 AM 30.7181 -78.8503 205° Southwest 439 505 32,000  Level Jacksonville Center
Sun 06:46:06 AM 30.6050 -78.9056 203° Southwest 439 505 32,000  Level Jacksonville Center
Sun 06:47:08 AM 30.5108 -78.9547 204° Southwest 419 482 32,000  Level Miami Center
Sun 06:48:08 AM 30.3975 -79.0053 201° Southwest 424 488 32,000  Level Miami Center
Sun 06:49:08 AM 30.2864 -79.0558 201° Southwest 428 493 32,000 -50 Level Miami Center
Sun 06:50:08 AM 30.1625 -79.1039 199° South 433 498 31,900  Descending Miami Center
Sun 06:51:08 AM 30.0472 -79.1469 198° South 433 498 32,000  Climbing Miami Center
Sun 06:52:08 AM 29.9339 -79.1972 201° Southwest 438 504 31,900 -50 Descending Miami Center
Sun 06:53:08 AM 29.8206 -79.2425 199° South 438 504 31,900 50 Level Miami Center
Sun 06:54:08 AM 29.7072 -79.2853 198° South 438 504 32,000 14 Climbing Miami Center
Sun 07:00:27 AM 28.9581 -79.5601 198° South 450 518 32,000  Level FlightAware ADS-B
Sun 07:01:03 AM 28.8884 -79.5864 198° South 452 520 32,000  Level FlightAware ADS-B
Sun 07:01:43 AM 28.8212 -79.6117 198° South 453 521 32,000  Level FlightAware ADS-B
Sun 07:02:14 AM 28.7472 -79.6393 198° South 454 522 32,000  Level FlightAware ADS-B
Sun 07:02:48 AM 28.6763 -79.6659 198° South 454 522 32,000  Level FlightAware ADS-B
Sun 07:03:31 AM 28.5915 -79.6976 198° South 454 522 32,000  Level FlightAware ADS-B
Sun 07:04:28 AM 28.4806 -79.7389 198° South 449 517 32,000  Level FlightAware ADS-B
Sun 07:04:58 AM 28.4195 -79.7617 198° South 452 520 32,000  Level FlightAware ADS-B
Sun 07:05:28 AM 28.3604 -79.7837 198° South 452 520 32,000  Level FlightAware ADS-B
Sun 07:06:09 AM 28.2794 -79.8138 198° South 454 522 32,000  Level FlightAware ADS-B
Sun 07:06:39 AM 28.2245 -79.8343 198° South 455 524 32,000  Level FlightAware ADS-B
Sun 07:07:19 AM 28.1384 -79.8662 198° South 456 525 32,000  Level FlightAware ADS-B
Sun 07:07:49 AM 28.0775 -79.8887 198° South 456 525 32,000  Level FlightAware ADS-B
Sun 07:08:23 AM 28.0099 -79.9137 198° South 456 525 32,000  Level FlightAware ADS-B
Sun 07:09:00 AM 27.9410 -79.9391 198° South 456 525 32,000  Level FlightAware ADS-B
Sun 07:09:30 AM 27.8742 -79.9636 198° South 456 525 32,000  Level FlightAware ADS-B
Sun 07:10:01 AM 27.8142 -79.9857 198° South 456 525 32,000  Level FlightAware ADS-B
Sun 07:11:01 AM 27.6939 -80.0300 198° South 450 518 32,000  Level FlightAware ADS-B
Sun 07:11:31 AM 27.6332 -80.0523 198° South 447 514 32,000  Level FlightAware ADS-B
Sun 07:12:02 AM 27.5829 -80.0707 198° South 448 516 32,000  Level FlightAware ADS-B
Sun 07:12:42 AM 27.4950 -80.1029 198° South 449 517 32,000  Level FlightAware ADS-B
Sun 07:13:21 AM 27.4188 -80.1306 198° South 450 518 32,000  Level FlightAware ADS-B
Sun 07:13:52 AM 27.3557 -80.1537 198° South 449 517 32,000  Level FlightAware ADS-B
Sun 07:14:31 AM 27.2851 -80.1795 198° South 450 518 32,000  Level FlightAware ADS-B
Sun 07:15:12 AM 27.1958 -80.2120 198° South 450 518 32,000  Level FlightAware ADS-B
Sun 07:15:51 AM 27.1196 -80.2398 198° South 449 517 32,000  Level FlightAware ADS-B
Sun 07:16:31 AM 27.0601 -80.2614 198° South 449 517 32,000  Level FlightAware ADS-B
Sun 07:17:03 AM 26.9790 -80.2908 198° South 448 516 32,000  Level FlightAware ADS-B
Sun 07:17:43 AM 26.9153 -80.3138 198° South 448 516 32,000  Level FlightAware ADS-B
Sun 07:18:23 AM 26.8236 -80.3470 198° South 449 517 32,000  Level FlightAware ADS-B
Sun 07:18:54 AM 26.7569 -80.3711 198° South 449 517 32,000  Level FlightAware ADS-B
Sun 07:19:33 AM 26.6798 -80.3988 198° South 451 519 32,000  Level FlightAware ADS-B
Sun 07:20:13 AM 26.6012 -80.4270 198° South 452 520 32,000  Level FlightAware ADS-B
Sun 07:21:24 AM 26.4596 -80.4779 198° South 453 521 32,000  Level FlightAware ADS-B
Sun 07:22:04 AM 26.3783 -80.5071 198° South 454 522 32,000  Level FlightAware ADS-B
Sun 07:22:36 AM 26.3187 -80.5284 198° South 456 525 32,000  Level FlightAware ADS-B
Sun 07:23:11 AM 26.2445 -80.5550 198° South 456 525 32,000  Level FlightAware ADS-B
Sun 07:23:41 AM 26.1844 -80.5764 198° South 455 524 32,000  Level FlightAware ADS-B
Sun 07:24:20 AM 26.1244 -80.5983 198° South 448 516 32,000 -121 Level Miami Center
Sun 07:25:20 AM 26.0064 -80.6411 198° South 448 516 31,800 -400 Descending Miami Center
Sun 07:26:20 AM 25.8861 -80.6856 198° South 453 521 31,200 -450 Descending Miami Center
Sun 07:27:20 AM 25.7639 -80.7303 198° South 453 521 30,900 -100 Descending Miami Center
Sun 07:28:20 AM 25.6269 -80.7789 198° South 467 537 31,000  Climbing Miami Center
Sun 07:29:20 AM 25.5067 -80.8208 197° South 467 537 30,900 -50 Descending Miami Center
Sun 07:30:20 AM 25.3822 -80.8650 198° South 467 537 30,900  Level Miami Center
Sun 07:31:20 AM 25.2600 -80.9069 197° South 467 537 30,900 50 Level Miami Center
Sun 07:32:20 AM 25.1397 -80.9489 198° South 467 537 31,000 50 Climbing Miami Center
Sun 07:33:20 AM 25.0175 -80.9908 197° South 467 537 31,000 -50 Level Miami Center
Sun 07:34:20 AM 24.8950 -81.0347 198° South 467 537 30,900  Descending Miami Center
Sun 07:35:20 AM 24.7683 -81.0783 197° South 467 537 31,000 50 Climbing Miami Center
Sun 07:36:20 AM 24.6422 -81.1106 193° South 467 537 31,000  Level Miami Center
Sun 07:37:20 AM 24.5144 -81.1269 187° South 467 537 31,000  Level Miami Center
Sun 07:38:20 AM 24.3842 -81.1497 189° South 473 544 31,000  Level Miami Center
Sun 07:39:20 AM 24.2561 -81.1728 189° South 473 544 31,000 -50 Level Miami Center
Sun 07:40:20 AM 24.1322 -81.1958 190° South 466 536 30,900 -100 Descending Miami Center
Sun 07:42:00 AM 23.9506 -81.2567 217° Southwest  Level FlightAware Approximate
Sun 07:49:00 AM 23.2871 -81.7902 216° Southwest  Level FlightAware Approximate
Sun 07:50:00 AM 23.1922 -81.8660 216° Southwest  Level FlightAware Approximate
Sun 07:51:00 AM 23.0972 -81.9417 216° Southwest  Level FlightAware Approximate
Sun 07:52:00 AM 23.0023 -82.0173 216° Southwest  Level FlightAware Approximate
Sun 07:53:00 AM 22.9072 -82.0927 216° Southwest  Level FlightAware Approximate
Sun 07:54:00 AM 22.8121 -82.1681 216° Southwest  Level FlightAware Approximate
Sun 07:55:00 AM 22.7170 -82.2434 216° Southwest  Level FlightAware Approximate
Sun 07:56:00 AM 22.6219 -82.3185 216° Southwest  Level FlightAware Approximate
Sun 07:57:00 AM 22.5267 -82.3935 216° Southwest  Level FlightAware Approximate
Sun 07:58:00 AM 22.4315 -82.4685 216° Southwest  Level FlightAware Approximate
Sun 07:59:00 AM 22.3363 -82.5433 216° Southwest  Level FlightAware Approximate
Sun 08:00:00 AM 22.2410 -82.6181 216° Southwest  Level FlightAware Approximate
Sun 08:01:00 AM 22.1457 -82.6927 216° Southwest  Level FlightAware Approximate
Sun 08:02:00 AM 22.0503 -82.7672 216° Southwest  Level FlightAware Approximate
Sun 08:03:00 AM 21.9549 -82.8417 216° Southwest  Level FlightAware Approximate
Sun 08:04:00 AM 21.8595 -82.9160 216° Southwest  Level FlightAware Approximate
Sun 08:05:00 AM 21.7641 -82.9902 216° Southwest  Level FlightAware Approximate
Sun 08:06:00 AM 21.6686 -83.0644 216° Southwest  Level FlightAware Approximate
Sun 08:07:00 AM 21.5731 -83.1384 216° Southwest  Level FlightAware Approximate
Sun 08:08:00 AM 21.4775 -83.2124 216° Southwest  Level FlightAware Approximate
Sun 08:09:00 AM 21.3820 -83.2862 216° Southwest  Level FlightAware Approximate
Sun 08:10:00 AM 21.2863 -83.3600 216° Southwest  Level FlightAware Approximate
Sun 08:11:00 AM 21.1907 -83.4336 216° Southwest  Level FlightAware Approximate
Sun 08:12:00 AM 21.0950 -83.5072 216° Southwest  Level FlightAware Approximate
Sun 08:13:00 AM 20.9993 -83.5806 216° Southwest  Level FlightAware Approximate
Sun 08:14:00 AM 20.9036 -83.6540 216° Southwest  Level FlightAware Approximate
Sun 08:15:00 AM 20.8078 -83.7273 216° Southwest  Level FlightAware Approximate
Sun 08:16:00 AM 20.7120 -83.8005 216° Southwest  Level FlightAware Approximate
Sun 08:17:00 AM 20.6162 -83.8735 216° Southwest  Level FlightAware Approximate
Sun 08:18:00 AM 20.5203 -83.9465 215° Southwest  Level FlightAware Approximate
Sun 08:19:00 AM 20.4266 -84.0223 218° Southwest  Level FlightAware Approximate
Sun 08:20:00 AM 20.3338 -84.0996 218° Southwest  Level FlightAware Approximate
Sun 08:21:00 AM 20.2360 -84.1695 214° Southwest  Level FlightAware Approximate
Sun 08:22:00 AM 20.1401 -84.2423 216° Southwest  Level FlightAware Approximate
Sun 08:23:00 AM 20.0447 -84.3157 216° Southwest  Level FlightAware Approximate
Sun 08:24:00 AM 19.9489 -84.3885 215° Southwest  Level FlightAware Approximate
Sun 08:25:00 AM 19.8528 -84.4608 215° Southwest  Level FlightAware Approximate
Sun 08:26:00 AM 19.7567 -84.5331 215° Southwest  Level FlightAware Approximate
Sun 08:27:00 AM 19.6605 -84.6052 215° Southwest  Level FlightAware Approximate
Sun 08:28:00 AM 19.5643 -84.6773 215° Southwest  Level FlightAware Approximate
Sun 08:29:00 AM 19.4681 -84.7493 215° Southwest  Level FlightAware Approximate
Sun 08:30:00 AM 19.3718 -84.8211 215° Southwest  Level FlightAware Approximate
Sun 08:31:00 AM 19.2756 -84.8930 215° Southwest  Level FlightAware Approximate
Sun 08:32:00 AM 19.1793 -84.9647 215° Southwest  Level FlightAware Approximate
Sun 08:33:00 AM 19.0829 -85.0363 215° Southwest  Level FlightAware Approximate
Sun 08:34:00 AM 18.9866 -85.1079 215° Southwest  Level FlightAware Approximate
Sun 08:35:00 AM 18.8902 -85.1793 215° Southwest  Level FlightAware Approximate
Sun 08:36:00 AM 18.7938 -85.2507 215° Southwest  Level FlightAware Approximate
Sun 08:37:00 AM 18.6973 -85.3220 215° Southwest  Level FlightAware Approximate
Sun 08:38:00 AM 18.6009 -85.3933 215° Southwest  Level FlightAware Approximate
Sun 08:39:00 AM 18.5044 -85.4644 215° Southwest  Level FlightAware Approximate
Sun 08:40:00 AM 18.4079 -85.5355 215° Southwest  Level FlightAware Approximate
Sun 08:41:00 AM 18.3113 -85.6065 215° Southwest  Level FlightAware Approximate
Sun 08:42:00 AM 18.2147 -85.6774 215° Southwest  Level FlightAware Approximate
Sun 08:43:00 AM 18.1181 -85.7482 215° Southwest  Level FlightAware Approximate
Sun 08:44:00 AM 18.0215 -85.8190 215° Southwest  Level FlightAware Approximate
Sun 08:45:00 AM 17.9249 -85.8896 215° Southwest  Level FlightAware Approximate
Sun 08:46:00 AM 17.8282 -85.9602 215° Southwest  Level FlightAware Approximate
Sun 08:47:00 AM 17.7315 -86.0307 215° Southwest  Level FlightAware Approximate
Sun 08:48:00 AM 17.6348 -86.1012 215° Southwest  Level FlightAware Approximate
Sun 08:49:00 AM 17.5380 -86.1716 215° Southwest  Level FlightAware Approximate
Sun 08:50:00 AM 17.4412 -86.2419 215° Southwest  Level FlightAware Approximate
Sun 08:51:00 AM 17.3444 -86.3121 215° Southwest  Level FlightAware Approximate
Sun 08:52:00 AM 17.2476 -86.3822 215° Southwest  Level FlightAware Approximate
Sun 08:53:00 AM 17.1545 -86.4574 221° Southwest  Level FlightAware Approximate
Sun 08:54:00 AM 17.0649 -86.5373 220° Southwest  Level FlightAware Approximate
Sun 08:55:00 AM 16.9754 -86.6172 220° Southwest  Level FlightAware Approximate
Sun 08:56:00 AM 16.8858 -86.6971 220° Southwest  Level FlightAware Approximate
Sun 08:57:00 AM 16.7961 -86.7768 220° Southwest  Level FlightAware Approximate
Sun 08:58:00 AM 16.7064 -86.8565 220° Southwest  Level FlightAware Approximate
Sun 08:59:00 AM 16.6168 -86.9361 220° Southwest  Level FlightAware Approximate
Sun 09:00:00 AM 16.5270 -87.0156 220° Southwest  Level FlightAware Approximate
Sun 09:01:00 AM 16.4373 -87.0950 220° Southwest  Level FlightAware Approximate
Sun 09:02:00 AM 16.3475 -87.1744 220° Southwest  Level FlightAware Approximate
Sun 09:03:00 AM 16.2577 -87.2537 220° Southwest  Level FlightAware Approximate
Sun 09:04:00 AM 16.1678 -87.3329 220° Southwest  Level FlightAware Approximate
Sun 09:05:00 AM 16.0779 -87.4121 220° Southwest  Level FlightAware Approximate
Sun 09:06:00 AM 15.9880 -87.4912 220° Southwest  Level FlightAware Approximate
Sun 09:07:00 AM 15.8981 -87.5702 220° Southwest  Level FlightAware Approximate
Sun 09:08:00 AM 15.8081 -87.6491 220° Southwest  Level FlightAware Approximate
Sun 09:09:00 AM 15.7181 -87.7280 220° Southwest  Level FlightAware Approximate
Sun 09:10:00 AM 15.6281 -87.8068 220° Southwest  Level FlightAware Approximate
Sun 09:11:00 AM 15.5380 -87.8855 220° Southwest  Level FlightAware Approximate
Sun 09:12:00 AM 15.4477 -87.9639 220° Southwest  Level FlightAware Approximate
Sun 09:13:00 AM 15.3570 -88.0417 220° Southwest  Level FlightAware Approximate
Sun 09:14:00 AM 15.2663 -88.1195 220° Southwest  Level FlightAware Approximate
Sun 09:15:00 AM 15.1755 -88.1972 220° Southwest  Level FlightAware Approximate
Sun 09:16:00 AM 15.0880 -88.2787 224° Southwest  Level FlightAware Approximate
Sun 09:17:00 AM 14.9966 -88.3534 224° Southwest  Level FlightAware Approximate
Sun 09:18:00 AM 14.9095 -88.4353 221° Southwest  Level FlightAware Approximate
Sun 09:19:00 AM 14.8211 -88.5157 221° Southwest  Level FlightAware Approximate
Sun 09:20:00 AM 14.7304 -88.5933 218° Southwest  Level FlightAware Approximate
Sun 09:21:00 AM 14.6381 -88.6689 218° Southwest  Level FlightAware Approximate
Sun 09:22:00 AM 14.5474 -88.7465 221° Southwest  Level FlightAware Approximate
Sun 09:23:00 AM 14.4579 -88.8255 221° Southwest  Level FlightAware Approximate
Sun 09:24:00 AM 14.3684 -88.9044 221° Southwest  Level FlightAware Approximate
Sun 09:25:00 AM 14.2670 -88.9500 180° South  Level FlightAware Approximate
Sun 09:26:00 AM 14.1496 -88.9567 186° South  Level FlightAware Approximate
Sun 09:27:00 AM 14.0325 -88.9694 188° South  Level FlightAware Approximate
Sun 09:28:00 AM 13.9160 -88.9873 188° South  Level FlightAware Approximate
Sun 09:29:00 AM 13.7994 -89.0038 186° South  Level FlightAware Approximate
Sun 09:30:00 AM 13.6824 -89.0167 180° South  Level FlightAware Approximate
Sun 09:31:00 AM 13.5650 -89.0203 191° South  Level FlightAware Approximate
Sun 09:32:00 AM 13.4485 -89.0333 180° South  Level FlightAware Approximate
Sun 09:33:00 AM 13.4410 -89.0557 224° Southwest  Level Estimated
Sun 09:34:00 AM 13.4410 -89.0557 224° Southwest  Level Estimated
Sun 09:35:00 AM 13.4410 -89.0557 224° Southwest  Level Estimated
Sun 09:36:00 AM 13.4410 -89.0557 224° Southwest  Level Estimated
Sun 09:37:00 AM 13.4410 -89.0557 224° Southwest  Level Estimated
Sun 09:38:00 AM 13.4410 -89.0557 224° Southwest  Level Estimated
Sun 09:39:00 AM 13.4410 -89.0557 224° Southwest  Level Estimated
Sun 09:40:00 AM 13.4410 -89.0557 224° Southwest  Level Estimated
Sun 09:41:00 AM 13.4410 -89.0557 224° Southwest  Level Estimated
Sun 09:42:00 AM 13.4410 -89.0557 224° Southwest  Level Estimated
Sun 09:43:00 AM 13.4410 -89.0557 224° Southwest  Level Estimated
Sun 09:44:00 AM 13.4410 -89.0557 224° Southwest  Level Estimated
Sun 09:45:00 AM 13.4410 -89.0557 224° Southwest  Level Estimated
Sun 09:46:00 AM 13.4410 -89.0557 224° Southwest  Level Estimated

Login

Don't have an account? Register now (free) for customized features, flight alerts, and more!